createdAt,value
2018-09-20T00:00:13.705Z,16.17
2018-09-20T00:02:44.312Z,15.33
2018-09-20T00:05:15.727Z,17.07
2018-09-20T00:07:47.103Z,15.60
2018-09-20T00:10:16.974Z,14.63
2018-09-20T00:12:46.355Z,14.10
2018-09-20T00:15:16.364Z,12.83
2018-09-20T00:17:46.911Z,19.37
2018-09-20T00:20:16.626Z,16.70
2018-09-20T00:22:47.538Z,18.77
2018-09-20T00:25:18.718Z,19.70
2018-09-20T00:27:48.778Z,17.87
2018-09-20T00:30:18.842Z,15.73
2018-09-20T00:32:50.026Z,18.90
2018-09-20T00:35:20.238Z,19.30
2018-09-20T00:37:49.874Z,18.67
2018-09-20T00:40:20.854Z,16.63
2018-09-20T00:42:51.661Z,17.40
2018-09-20T00:45:21.860Z,17.80
2018-09-20T00:47:52.263Z,14.67
2018-09-20T00:50:21.886Z,15.20
2018-09-20T00:52:52.226Z,17.60
2018-09-20T00:55:21.573Z,19.70
2018-09-20T00:57:50.733Z,16.07
2018-09-20T01:00:20.926Z,17.00
2018-09-20T01:02:50.834Z,15.53
2018-09-20T01:05:21.516Z,16.40
2018-09-20T01:07:52.669Z,16.43
2018-09-20T01:10:23.302Z,16.97
2018-09-20T01:12:53.199Z,12.87
2018-09-20T01:15:23.075Z,21.53
2018-09-20T01:17:52.889Z,18.10
2018-09-20T01:20:23.014Z,20.93
2018-09-20T01:22:52.266Z,16.90
2018-09-20T01:25:22.955Z,19.70
2018-09-20T01:27:52.146Z,17.07
2018-09-20T01:30:22.164Z,18.27
2018-09-20T01:32:52.227Z,16.50
2018-09-20T01:35:22.271Z,18.70
2018-09-20T01:37:53.034Z,20.80
2018-09-20T01:40:22.951Z,19.00
2018-09-20T01:42:53.234Z,17.47
2018-09-20T01:45:23.846Z,16.10
2018-09-20T01:47:54.110Z,16.90
2018-09-20T01:50:23.919Z,20.07
2018-09-20T01:52:53.894Z,20.60
2018-09-20T01:55:23.819Z,15.07
2018-09-20T01:57:53.770Z,18.67
2018-09-20T02:00:24.905Z,17.33
2018-09-20T02:02:54.957Z,18.20
2018-09-20T02:05:24.920Z,16.73
2018-09-20T02:07:56.243Z,19.73
2018-09-20T02:10:27.450Z,17.63
2018-09-20T02:12:57.369Z,16.57
2018-09-20T02:15:27.275Z,13.73
2018-09-20T02:17:57.138Z,18.33
2018-09-20T02:20:27.003Z,19.60
2018-09-20T02:22:58.747Z,16.40
2018-09-20T02:25:29.079Z,18.17
2018-09-20T02:27:59.291Z,21.43
2018-09-20T02:30:29.749Z,20.33
2018-09-20T02:32:59.175Z,19.87
2018-09-20T02:35:29.675Z,17.87
2018-09-20T02:38:00.410Z,20.97
2018-09-20T02:40:32.170Z,17.97
2018-09-20T02:43:02.571Z,20.30
2018-09-20T02:45:33.183Z,23.00
2018-09-20T02:48:03.231Z,17.20
2018-09-20T02:50:33.874Z,18.37
2018-09-20T02:53:05.030Z,15.43
2018-09-20T02:55:35.136Z,18.97
2018-09-20T02:58:06.261Z,17.33
2018-09-20T03:00:35.494Z,20.50
2018-09-20T03:03:05.448Z,18.90
2018-09-20T03:05:34.838Z,18.27
2018-09-20T03:08:04.579Z,16.37
2018-09-20T03:10:34.155Z,23.03
2018-09-20T03:13:04.882Z,17.13
2018-09-20T03:15:35.840Z,20.23
2018-09-20T03:18:06.766Z,15.70
2018-09-20T03:20:36.811Z,19.10
2018-09-20T03:23:06.246Z,19.20
2018-09-20T03:25:35.740Z,17.53
2018-09-20T03:28:06.888Z,17.27
2018-09-20T03:30:37.451Z,16.60
2018-09-20T03:33:09.043Z,19.97
2018-09-20T03:35:38.863Z,13.67
2018-09-20T03:38:08.550Z,16.83
2018-09-20T03:40:39.387Z,17.50
2018-09-20T03:43:09.084Z,18.17
2018-09-20T03:45:39.590Z,17.50
2018-09-20T03:48:09.186Z,16.90
2018-09-20T03:50:40.607Z,23.07
2018-09-20T03:53:11.879Z,16.83
2018-09-20T03:55:43.180Z,16.53
2018-09-20T03:58:13.181Z,19.97
2018-09-20T04:00:43.314Z,17.83
2018-09-20T04:03:13.797Z,20.40
2018-09-20T04:05:43.018Z,20.43
2018-09-20T04:08:12.923Z,24.07
2018-09-20T04:10:42.840Z,17.17
2018-09-20T04:13:13.075Z,13.37
2018-09-20T04:15:43.295Z,17.70
2018-09-20T04:18:13.293Z,22.63
2018-09-20T04:20:44.390Z,19.20
2018-09-20T04:23:15.090Z,23.33
2018-09-20T04:25:45.419Z,19.87
2018-09-20T04:28:14.771Z,22.93
2018-09-20T04:30:45.008Z,22.93
2018-09-20T04:33:16.511Z,20.03
2018-09-20T04:35:46.962Z,16.20
2018-09-20T04:38:17.243Z,15.50
2018-09-20T04:40:47.223Z,18.43
2018-09-20T04:43:16.703Z,24.90
2018-09-20T04:45:47.407Z,17.07
2018-09-20T04:48:18.789Z,19.73
2018-09-20T04:50:48.881Z,14.83
2018-09-20T04:53:19.013Z,18.87
2018-09-20T04:55:48.890Z,20.53
2018-09-20T04:58:20.099Z,17.87
2018-09-20T05:00:50.296Z,18.23
2018-09-20T05:03:20.154Z,18.83
2018-09-20T05:05:49.635Z,16.37
2018-09-20T05:08:19.320Z,21.97
2018-09-20T05:10:49.723Z,20.37
2018-09-20T05:13:20.874Z,19.33
2018-09-20T05:15:51.230Z,19.57
2018-09-20T05:18:22.478Z,15.73
2018-09-20T05:20:52.330Z,20.00
2018-09-20T05:23:21.953Z,21.97
2018-09-20T05:25:51.123Z,18.17
2018-09-20T05:28:20.691Z,19.97
2018-09-20T05:30:52.128Z,21.73
2018-09-20T05:33:23.387Z,19.00
2018-09-20T05:35:55.011Z,13.23
2018-09-20T05:38:24.224Z,21.23
2018-09-20T05:40:53.694Z,14.73
2018-09-20T05:43:23.237Z,14.57
2018-09-20T05:45:53.738Z,17.07
2018-09-20T05:48:23.905Z,17.13
2018-09-20T05:50:53.888Z,17.90
2018-09-20T05:53:24.198Z,19.40
2018-09-20T05:55:53.334Z,20.43
2018-09-20T05:58:22.735Z,22.50
2018-09-20T06:00:53.231Z,23.40
2018-09-20T06:03:24.450Z,16.60
2018-09-20T06:05:55.054Z,19.40
2018-09-20T06:08:24.985Z,19.33
2018-09-20T06:10:55.957Z,23.97
2018-09-20T06:13:25.555Z,21.83
2018-09-20T06:15:55.646Z,22.50
2018-09-20T06:18:26.265Z,19.23
2018-09-20T06:20:55.850Z,18.30
2018-09-20T06:23:25.918Z,17.97
2018-09-20T06:25:57.370Z,18.47
2018-09-20T06:28:27.152Z,20.93
2018-09-20T06:30:58.101Z,21.03
2018-09-20T06:33:30.170Z,14.93
2018-09-20T06:36:02.069Z,18.80
2018-09-20T06:38:32.990Z,20.87
2018-09-20T06:41:05.988Z,21.07
2018-09-20T06:43:37.762Z,20.67
2018-09-20T06:46:07.670Z,21.27
2018-09-20T06:48:37.713Z,22.83
2018-09-20T06:51:08.526Z,18.57
2018-09-20T06:53:39.438Z,15.23
2018-09-20T06:56:10.319Z,14.43
2018-09-20T06:58:39.881Z,20.80
2018-09-20T07:01:09.062Z,18.30
2018-09-20T07:03:39.202Z,16.03
2018-09-20T07:06:09.642Z,15.23
2018-09-20T07:08:39.939Z,15.97
2018-09-20T07:11:10.543Z,19.40
2018-09-20T07:13:41.911Z,16.33
2018-09-20T07:16:12.546Z,21.10
2018-09-20T07:18:43.711Z,21.60
2018-09-20T07:21:14.126Z,20.77
2018-09-20T07:23:45.567Z,20.80
2018-09-20T07:26:15.718Z,17.80
2018-09-20T07:28:44.930Z,21.43
2018-09-20T07:31:15.362Z,18.77
2018-09-20T07:33:46.714Z,25.13
2018-09-20T07:36:17.843Z,20.13
2018-09-20T07:38:48.098Z,19.63
2018-09-20T07:41:17.262Z,20.07
2018-09-20T07:43:48.738Z,22.07
2018-09-20T07:46:18.717Z,23.03
2018-09-20T07:48:48.079Z,15.03
2018-09-20T07:51:17.233Z,16.03
2018-09-20T07:53:47.609Z,19.63
2018-09-20T07:56:18.284Z,17.37
2018-09-20T07:58:47.894Z,20.93
2018-09-20T08:01:18.363Z,18.93
2018-09-20T08:03:49.758Z,23.33
2018-09-20T08:06:20.972Z,20.17
2018-09-20T08:09:37.798Z,18.47
2018-09-20T08:12:06.642Z,21.23
2018-09-20T08:14:35.479Z,18.33
2018-09-20T08:17:04.342Z,18.00
2018-09-20T08:19:33.174Z,15.13
2018-09-20T08:22:02.043Z,22.00
2018-09-20T08:24:30.846Z,22.40
2018-09-20T08:26:59.686Z,20.20
2018-09-20T08:29:28.519Z,20.83
2018-09-20T08:31:57.375Z,15.13
2018-09-20T08:34:26.214Z,15.30
2018-09-20T08:36:55.058Z,13.30
2018-09-20T08:39:23.949Z,20.43
2018-09-20T08:41:52.782Z,17.67
2018-09-20T08:44:21.619Z,18.80
2018-09-20T08:46:50.458Z,18.87
2018-09-20T08:49:19.302Z,16.70
2018-09-20T08:51:48.142Z,18.87
2018-09-20T08:54:16.997Z,22.93
2018-09-20T08:56:45.871Z,21.23
2018-09-20T08:59:14.662Z,25.87
2018-09-20T09:01:43.566Z,17.13
2018-09-20T09:04:12.410Z,17.87
2018-09-20T09:06:41.276Z,15.70
2018-09-20T09:09:10.593Z,14.27
2018-09-20T09:11:39.754Z,19.23
2018-09-20T09:14:08.999Z,18.53
2018-09-20T09:16:37.930Z,22.80
2018-09-20T09:19:06.770Z,14.80
2018-09-20T09:21:35.659Z,11.50
2018-09-20T09:24:04.487Z,14.03
2018-09-20T09:26:33.923Z,13.77
2018-09-20T09:29:02.754Z,14.10
2018-09-20T09:31:31.614Z,12.73
2018-09-20T09:34:00.464Z,16.13
2018-09-20T09:36:29.315Z,12.40
2018-09-20T09:38:58.211Z,18.07
2018-09-20T09:41:27.042Z,15.87
2018-09-20T09:43:55.881Z,15.20
2018-09-20T09:46:24.718Z,13.17
2018-09-20T09:48:53.557Z,11.60
2018-09-20T09:51:22.406Z,15.97
2018-09-20T09:53:51.234Z,17.63
2018-09-20T09:56:20.083Z,14.30
2018-09-20T09:58:48.926Z,15.90
2018-09-20T10:01:17.786Z,11.00
2018-09-20T10:03:46.634Z,19.33
2018-09-20T10:06:15.541Z,14.63
2018-09-20T10:08:44.426Z,11.37
2018-09-20T10:11:13.286Z,12.53
2018-09-20T10:13:42.178Z,14.13
2018-09-20T10:16:11.048Z,18.93
2018-09-20T10:18:39.863Z,12.27
2018-09-20T10:21:08.711Z,8.40
2018-09-20T10:23:37.558Z,10.10
2018-09-20T10:27:30.945Z,10.03
2018-09-20T10:29:59.799Z,11.53
2018-09-20T10:32:28.663Z,12.07
2018-09-20T10:34:57.522Z,10.00
2018-09-20T10:37:26.386Z,11.83
2018-09-20T10:39:55.250Z,13.83
2018-09-20T10:42:24.110Z,14.10
2018-09-20T10:44:52.977Z,10.73
2018-09-20T10:47:21.889Z,9.67
2018-09-20T10:49:50.654Z,12.63
2018-09-20T10:52:19.522Z,11.47
2018-09-20T10:54:48.451Z,12.57
2018-09-20T10:57:17.262Z,12.47
2018-09-20T10:59:46.103Z,7.90
2018-09-20T11:02:14.957Z,8.63
2018-09-20T11:04:44.534Z,8.93
2018-09-20T11:07:13.395Z,11.17
2018-09-20T11:09:42.254Z,11.27
2018-09-20T11:12:11.114Z,14.80
2018-09-20T11:14:39.974Z,11.13
2018-09-20T11:17:08.875Z,8.73
2018-09-20T11:19:37.727Z,11.37
2018-09-20T11:22:06.590Z,10.13
2018-09-20T11:24:35.453Z,8.33
2018-09-20T11:27:04.298Z,10.93
2018-09-20T11:29:33.155Z,10.13
2018-09-20T11:32:02.037Z,6.30
2018-09-20T11:34:30.866Z,9.90
2018-09-20T11:36:59.708Z,11.13
2018-09-20T11:39:28.533Z,8.50
2018-09-20T11:41:57.799Z,11.07
2018-09-20T11:44:26.639Z,11.60
2018-09-20T11:46:55.500Z,12.33
2018-09-20T11:49:24.346Z,8.10
2018-09-20T11:51:53.177Z,7.67
2018-09-20T11:54:22.030Z,9.43
2018-09-20T11:56:50.883Z,9.60
2018-09-20T11:59:19.752Z,13.70
2018-09-20T12:01:48.594Z,11.63
2018-09-20T12:04:17.438Z,11.27
2018-09-20T12:06:46.279Z,8.17
2018-09-20T12:09:15.117Z,10.87
2018-09-20T12:11:43.953Z,11.93
2018-09-20T12:14:12.786Z,10.43
2018-09-20T12:16:41.617Z,8.43
2018-09-20T12:19:10.463Z,10.50
2018-09-20T12:21:39.299Z,13.00
2018-09-20T12:24:08.138Z,10.00
2018-09-20T12:26:36.974Z,10.90
2018-09-20T12:29:05.977Z,13.90
2018-09-20T12:31:34.852Z,14.10
2018-09-20T12:34:03.645Z,12.00
2018-09-20T12:36:32.491Z,9.63
2018-09-20T12:39:01.363Z,10.47
2018-09-20T12:41:30.211Z,8.93
2018-09-20T12:43:59.071Z,7.90
2018-09-20T12:46:27.922Z,11.93
2018-09-20T12:48:56.758Z,9.70
2018-09-20T12:51:25.598Z,12.73
2018-09-20T12:53:54.450Z,11.93
2018-09-20T12:56:23.314Z,9.90
2018-09-20T12:58:52.334Z,11.47
2018-09-20T13:01:22.034Z,11.90
2018-09-20T13:03:51.391Z,13.27
2018-09-20T13:06:20.342Z,17.73
2018-09-20T13:08:49.254Z,8.43
2018-09-20T13:11:18.649Z,10.23
2018-09-20T13:13:47.555Z,15.63
2018-09-20T13:16:16.398Z,9.53
2018-09-20T13:18:45.242Z,9.17
2018-09-20T13:21:14.142Z,8.93
2018-09-20T13:23:42.970Z,8.77
2018-09-20T13:26:11.814Z,9.57
2018-09-20T13:28:40.691Z,9.43
2018-09-20T13:31:09.539Z,12.83
2018-09-20T13:33:38.375Z,11.03
2018-09-20T13:36:07.218Z,9.20
2018-09-20T13:38:36.070Z,10.33
2018-09-20T13:41:04.887Z,7.33
2018-09-20T13:43:33.795Z,11.10
2018-09-20T13:46:02.590Z,7.40
2018-09-20T13:48:31.423Z,11.10
2018-09-20T13:51:00.372Z,11.57
2018-09-20T13:53:29.201Z,13.50
2018-09-20T13:55:58.082Z,10.63
2018-09-20T13:58:26.939Z,11.63
2018-09-20T14:00:55.782Z,6.07
2018-09-20T14:03:24.655Z,9.80
2018-09-20T14:05:53.505Z,9.40
2018-09-20T14:08:22.275Z,7.83
2018-09-20T14:10:51.171Z,9.40
2018-09-20T14:13:20.065Z,7.77
2018-09-20T14:15:48.899Z,10.83
2018-09-20T14:18:17.811Z,7.40
2018-09-20T14:20:46.641Z,12.17
2018-09-20T14:23:15.479Z,11.53
2018-09-20T14:25:44.323Z,11.87
2018-09-20T14:28:13.202Z,11.63
2018-09-20T14:30:42.042Z,11.20
2018-09-20T14:33:10.883Z,8.73
2018-09-20T14:35:39.790Z,12.00
2018-09-20T14:38:08.618Z,9.03
2018-09-20T14:40:37.547Z,8.30
2018-09-20T14:43:06.379Z,8.07
2018-09-20T14:45:35.268Z,12.73
2018-09-20T14:48:04.058Z,13.00
2018-09-20T14:50:32.910Z,7.07
2018-09-20T14:53:01.771Z,9.73
2018-09-20T14:55:30.611Z,7.53
2018-09-20T14:57:59.442Z,5.83
2018-09-20T15:00:28.279Z,10.57
2018-09-20T15:02:57.114Z,9.37
2018-09-20T15:05:25.981Z,6.80
2018-09-20T15:07:54.823Z,7.17
2018-09-20T15:10:23.690Z,7.90
2018-09-20T15:12:52.525Z,5.73
2018-09-20T15:15:21.384Z,7.40
2018-09-20T15:17:50.229Z,10.47
2018-09-20T15:20:19.037Z,9.87
2018-09-20T15:22:47.870Z,6.73
2018-09-20T15:25:16.707Z,8.33
2018-09-20T15:27:45.541Z,7.73
2018-09-20T15:30:14.378Z,8.00
2018-09-20T15:32:43.351Z,7.63
2018-09-20T15:35:12.074Z,9.13
2018-09-20T15:37:41.071Z,8.60
2018-09-20T15:40:09.906Z,9.90
2018-09-20T15:42:38.759Z,7.83
2018-09-20T15:45:07.614Z,8.63
2018-09-20T15:47:36.628Z,9.27
2018-09-20T15:50:05.481Z,11.57
2018-09-20T15:52:34.334Z,9.13
2018-09-20T15:55:03.173Z,8.40
2018-09-20T15:57:32.030Z,8.27
2018-09-20T16:00:00.878Z,9.93
2018-09-20T16:02:29.730Z,9.87
2018-09-20T16:04:58.574Z,10.80
2018-09-20T16:07:27.535Z,10.10
2018-09-20T16:09:56.395Z,10.97
2018-09-20T16:12:25.251Z,9.23
2018-09-20T16:14:54.119Z,9.03
2018-09-20T16:17:22.974Z,7.47
2018-09-20T16:19:51.809Z,7.10
2018-09-20T16:22:20.658Z,7.67
2018-09-20T16:24:49.505Z,6.00
2018-09-20T16:27:18.420Z,10.53
2018-09-20T16:30:00.314Z,9.37
2018-09-20T16:32:41.583Z,10.33
2018-09-20T16:35:32.058Z,8.50
2018-09-20T16:38:13.537Z,10.43
2018-09-20T16:40:45.187Z,8.40
2018-09-20T16:43:14.042Z,10.47
2018-09-20T16:45:43.526Z,9.57
2018-09-20T16:48:12.611Z,6.73
2018-09-20T16:50:41.455Z,6.60
2018-09-20T16:53:10.385Z,7.57
2018-09-20T16:55:39.146Z,10.63
2018-09-20T16:58:08.006Z,8.17
2018-09-20T17:00:36.862Z,10.67
2018-09-20T17:03:06.039Z,8.87
2018-09-20T17:05:34.837Z,7.17
2018-09-20T17:08:03.682Z,7.77
2018-09-20T17:10:32.530Z,7.77
2018-09-20T17:13:01.435Z,8.83
2018-09-20T17:15:30.283Z,9.03
2018-09-20T17:17:59.144Z,13.50
2018-09-20T17:20:27.995Z,10.07
2018-09-20T17:22:56.842Z,11.10
2018-09-20T17:25:25.742Z,9.77
2018-09-20T17:27:54.546Z,13.67
2018-09-20T17:30:23.414Z,10.77
2018-09-20T17:32:52.253Z,11.13
2018-09-20T17:35:21.259Z,7.57
2018-09-20T17:37:50.678Z,11.23
2018-09-20T17:40:20.427Z,12.47
2018-09-20T17:42:50.931Z,11.07
2018-09-20T17:45:19.771Z,10.10
2018-09-20T17:47:48.602Z,9.23
2018-09-20T17:50:17.456Z,12.60
2018-09-20T17:52:46.706Z,16.83
2018-09-20T17:55:15.818Z,9.93
2018-09-20T17:57:44.934Z,13.90
2018-09-20T18:00:13.790Z,11.37
2018-09-20T18:02:42.654Z,13.47
2018-09-20T18:05:11.503Z,12.63
2018-09-20T18:07:40.335Z,14.13
2018-09-20T18:10:09.184Z,20.07
2018-09-20T18:12:38.941Z,22.50
2018-09-20T18:15:07.809Z,15.97
2018-09-20T18:17:36.870Z,13.70
2018-09-20T18:20:05.705Z,9.40
2018-09-20T18:22:34.542Z,12.77
2018-09-20T18:25:03.382Z,14.10
2018-09-20T18:27:32.255Z,10.93
2018-09-20T18:30:01.082Z,11.43
2018-09-20T18:32:29.946Z,11.13
2018-09-20T18:34:58.798Z,10.03
2018-09-20T18:37:28.834Z,12.13
2018-09-20T18:39:57.815Z,9.57
2018-09-20T18:42:26.691Z,7.83
2018-09-20T18:44:55.520Z,8.93
2018-09-20T18:47:24.363Z,9.57
2018-09-20T18:49:53.236Z,10.93
2018-09-20T18:52:22.387Z,6.13
2018-09-20T18:54:51.229Z,10.57
2018-09-20T18:57:20.062Z,10.43
2018-09-20T18:59:48.906Z,10.37
2018-09-20T19:02:17.798Z,9.37
2018-09-20T19:04:46.718Z,11.47
2018-09-20T19:07:15.611Z,9.20
2018-09-20T19:09:44.427Z,13.10
2018-09-20T19:12:13.310Z,11.50
2018-09-20T19:14:42.168Z,9.63
2018-09-20T19:17:11.022Z,9.17
2018-09-20T19:19:39.985Z,12.00
2018-09-20T19:22:08.843Z,13.17
2018-09-20T19:24:37.698Z,8.73
2018-09-20T19:27:06.789Z,12.03
2018-09-20T19:29:35.638Z,11.40
2018-09-20T19:32:04.530Z,21.37
2018-09-20T19:34:33.438Z,17.47
2018-09-20T19:37:02.336Z,16.27
2018-09-20T19:39:31.150Z,16.53
2018-09-20T19:42:00.004Z,14.23
2018-09-20T19:44:28.892Z,14.43
2018-09-20T19:46:57.730Z,11.10
2018-09-20T19:49:26.573Z,13.73
2018-09-20T19:51:55.472Z,12.87
2018-09-20T19:54:24.283Z,11.03
2018-09-20T19:56:53.830Z,10.17
2018-09-20T19:59:22.683Z,12.30
2018-09-20T20:01:51.540Z,9.30
2018-09-20T20:04:20.382Z,7.57
2018-09-20T20:06:49.230Z,8.63
2018-09-20T20:09:18.089Z,13.37
2018-09-20T20:11:46.964Z,13.90
2018-09-20T20:14:15.815Z,11.33
2018-09-20T20:16:44.672Z,11.27
2018-09-20T20:19:13.522Z,11.37
2018-09-20T20:21:42.382Z,11.00
2018-09-20T20:24:11.235Z,11.50
2018-09-20T20:26:40.132Z,10.40
2018-09-20T20:29:08.978Z,9.33
2018-09-20T20:31:37.831Z,6.90
2018-09-20T20:34:06.679Z,10.77
2018-09-20T20:36:35.544Z,8.77
2018-09-20T20:39:06.899Z,14.57
2018-09-20T20:41:35.763Z,10.37
2018-09-20T20:44:04.616Z,10.43
2018-09-20T20:46:33.482Z,13.70
2018-09-20T20:49:02.334Z,8.27
2018-09-20T20:51:31.233Z,8.60
2018-09-20T20:54:00.414Z,10.70
2018-09-20T20:56:29.394Z,9.57
2018-09-20T20:58:58.266Z,8.17
2018-09-20T21:01:27.098Z,10.13
2018-09-20T21:03:55.955Z,8.73
2018-09-20T21:06:24.862Z,9.07
2018-09-20T21:08:53.696Z,10.00
2018-09-20T21:11:22.507Z,8.17
2018-09-20T21:13:51.358Z,12.00
2018-09-20T21:16:20.238Z,9.27
2018-09-20T21:18:49.135Z,10.17
2018-09-20T21:21:18.060Z,10.70
2018-09-20T21:23:46.903Z,9.07
2018-09-20T21:26:16.346Z,9.40
2018-09-20T21:28:45.198Z,6.90
2018-09-20T21:31:14.042Z,7.83
2018-09-20T21:33:42.881Z,11.90
2018-09-20T21:36:11.727Z,9.13
2018-09-20T21:38:40.558Z,13.20
2018-09-20T21:41:09.442Z,10.97
2018-09-20T21:43:38.283Z,7.40
2018-09-20T21:46:07.119Z,12.13
2018-09-20T21:48:35.958Z,11.70
2018-09-20T21:51:04.845Z,9.97
2018-09-20T21:53:33.675Z,8.00
2018-09-20T21:56:02.502Z,9.80
2018-09-20T21:58:31.402Z,9.83
2018-09-20T22:01:01.170Z,9.13
2018-09-20T22:03:30.517Z,6.73
2018-09-20T22:05:59.414Z,9.53
2018-09-20T22:08:28.225Z,11.37
2018-09-20T22:10:57.050Z,8.30
2018-09-20T22:13:25.890Z,8.83
2018-09-20T22:15:54.723Z,8.10
2018-09-20T22:18:23.602Z,9.93
2018-09-20T22:20:52.426Z,7.27
2018-09-20T22:23:21.266Z,8.53
2018-09-20T22:25:50.107Z,11.03
2018-09-20T22:28:18.946Z,9.57
2018-09-20T22:30:47.808Z,8.77
2018-09-20T22:33:16.617Z,12.37
2018-09-20T22:35:45.455Z,11.63
2018-09-20T22:38:14.339Z,9.07
2018-09-20T22:40:43.282Z,11.33
2018-09-20T22:43:12.134Z,9.53
2018-09-20T22:45:40.968Z,8.63
2018-09-20T22:48:09.806Z,10.50
2018-09-20T22:50:38.643Z,9.20
2018-09-20T22:53:08.122Z,7.10
2018-09-20T22:55:36.966Z,8.23
2018-09-20T22:58:06.237Z,7.90
2018-09-20T23:00:35.034Z,7.37
2018-09-20T23:03:03.870Z,10.33
2018-09-20T23:05:32.711Z,12.27
2018-09-20T23:08:01.562Z,9.93
2018-09-20T23:10:30.501Z,7.67
2018-09-20T23:12:59.389Z,10.70
2018-09-20T23:15:28.178Z,9.77
2018-09-20T23:17:57.006Z,9.37
2018-09-20T23:20:25.839Z,10.73
2018-09-20T23:22:54.695Z,11.50
2018-09-20T23:25:23.547Z,10.03
2018-09-20T23:27:52.382Z,11.10
2018-09-20T23:30:21.214Z,8.53
2018-09-20T23:32:50.067Z,9.47
2018-09-20T23:35:18.922Z,11.37
2018-09-20T23:37:47.775Z,8.93
2018-09-20T23:40:16.687Z,8.83
2018-09-20T23:42:45.626Z,9.83
2018-09-20T23:45:14.482Z,9.53
2018-09-20T23:47:43.329Z,12.07
2018-09-20T23:50:12.202Z,12.83
2018-09-20T23:52:41.107Z,9.13
2018-09-20T23:55:09.923Z,7.83
2018-09-20T23:57:38.774Z,7.73
